Time;durP1;ratioP1;P1;durP2;ratioP2;P2;SDS_P1;SDS_P2;PMS_P1;PMS_P2;Temp;Humidity;BMP_temperature;BMP_pressure;BME280_temperature;BME280_humidity;BME280_pressure;Samples;Min_cycle;Max_cycle;Signal;HPM_P1;HPM_P2
2021/10/06 00:53:33;;;;;;;3.87;2.03;;;;;;;11.73;73.57;98709.16;2616480;47;20134;-69
2021/10/06 00:56:03;;;;;;;2.80;1.50;;;;;;;11.71;73.30;98706.69;2618637;39;20437;-69
2021/10/06 00:58:33;;;;;;;3.70;1.60;;;;;;;11.70;72.84;98706.91;2618617;54;20031;-69
2021/10/06 01:01:03;;;;;;;6.05;1.90;;;;;;;11.72;72.93;98713.66;2618679;54;20041;-69
2021/10/06 01:03:33;;;;;;;6.25;2.08;;;;;;;11.68;72.75;98714.25;2617940;47;20114;-69
2021/10/06 01:06:03;;;;;;;5.32;1.52;;;;;;;11.63;72.47;98707.72;2618865;39;20338;-69
2021/10/06 01:08:35;;;;;;;6.55;1.88;;;;;;;11.65;72.88;98713.63;2618097;54;20051;-69
2021/10/06 01:11:05;;;;;;;3.70;1.70;;;;;;;11.65;72.44;98708.34;2617674;54;20030;-69
2021/10/06 01:13:35;;;;;;;4.93;2.00;;;;;;;11.69;72.36;98713.22;2618708;54;20030;-69
2021/10/06 01:16:05;;;;;;;4.72;1.50;;;;;;;11.67;72.01;98721.34;2618431;54;20018;-69
2021/10/06 01:18:36;;;;;;;7.90;2.00;;;;;;;11.66;71.60;98712.59;2619483;54;20027;-69
2021/10/06 01:21:14;;;;;;;3.97;1.48;;;;;;;11.68;71.80;98715.06;2619735;39;20425;-69
2021/10/06 01:23:44;;;;;;;6.32;1.50;;;;;;;11.68;72.08;98723.00;2618913;54;20041;-70
2021/10/06 01:26:18;;;;;;;3.08;1.30;;;;;;;11.67;71.85;98724.00;2618959;54;20046;-69
2021/10/06 01:28:49;;;;;;;6.28;1.73;;;;;;;11.61;71.91;98724.81;2619238;54;20040;-70
2021/10/06 01:31:18;;;;;;;7.20;1.25;;;;;;;11.59;71.91;98725.03;2619333;54;20030;-70
2021/10/06 01:33:48;;;;;;;8.82;2.08;;;;;;;11.58;71.79;98719.94;2618861;39;20595;-70
2021/10/06 01:36:21;;;;;;;3.58;1.40;;;;;;;11.58;71.58;98722.56;2620834;54;20032;-70
2021/10/06 01:38:50;;;;;;;6.57;1.50;;;;;;;11.55;71.72;98721.16;2621046;54;20039;-70
2021/10/06 01:41:20;;;;;;;5.28;1.13;;;;;;;11.50;71.55;98725.41;2621330;54;20041;-70
2021/10/06 01:43:50;;;;;;;4.25;1.30;;;;;;;11.48;71.65;98735.41;2622942;54;20041;-70
2021/10/06 01:46:20;;;;;;;6.70;1.40;;;;;;;11.47;71.99;98734.59;2623995;54;20033;-70
2021/10/06 01:48:49;;;;;;;5.30;1.30;;;;;;;11.45;71.77;98736.59;2620007;39;20558;-69
2021/10/06 01:51:22;;;;;;;4.68;1.33;;;;;;;11.45;72.01;98741.88;2619104;54;20030;-69
2021/10/06 01:53:52;;;;;;;5.90;1.30;;;;;;;11.37;72.02;98742.06;2618969;54;20033;-70
2021/10/06 01:56:21;;;;;;;11.55;1.92;;;;;;;11.33;72.76;98749.59;2619442;54;20023;-69
2021/10/06 01:58:52;;;;;;;3.58;1.30;;;;;;;11.37;72.63;98750.00;2618684;47;20046;-69
2021/10/06 02:01:22;;;;;;;5.60;1.23;;;;;;;11.34;73.03;98745.91;2618921;54;20030;-70
2021/10/06 02:03:51;;;;;;;6.72;1.83;;;;;;;11.32;72.68;98750.59;2618847;54;20022;-71
2021/10/06 02:06:24;;;;;;;7.60;2.13;;;;;;;11.36;73.27;98751.84;2620263;54;20027;-70
2021/10/06 02:08:54;;;;;;;5.63;1.40;;;;;;;11.38;73.28;98757.75;2619338;39;20410;-70
2021/10/06 02:11:23;;;;;;;7.47;1.90;;;;;;;11.38;72.94;98755.09;2618223;51;20034;-70
2021/10/06 02:13:53;;;;;;;6.53;2.10;;;;;;;11.35;73.29;98749.41;2618087;47;20038;-70
2021/10/06 02:16:23;;;;;;;5.53;1.88;;;;;;;11.32;73.56;98752.44;2618538;54;20069;-70
2021/10/06 02:18:53;;;;;;;2.90;1.33;;;;;;;11.33;73.41;98746.13;2618914;54;20039;-70
2021/10/06 02:21:38;;;;;;;6.13;1.40;;;;;;;11.31;73.40;98756.13;2619425;39;20418;-70
2021/10/06 02:24:08;;;;;;;6.93;1.65;;;;;;;11.31;73.40;98751.63;2618814;54;20035;-69
2021/10/06 02:26:38;;;;;;;6.35;1.60;;;;;;;11.34;73.68;98751.22;2620808;47;20034;-69
2021/10/06 02:29:07;;;;;;;3.45;1.50;;;;;;;11.30;73.89;98747.34;2622265;54;20045;-70
2021/10/06 02:31:37;;;;;;;8.48;1.67;;;;;;;11.26;74.16;98748.75;2625103;54;20035;-71
2021/10/06 02:34:07;;;;;;;5.43;1.50;;;;;;;11.30;74.20;98746.53;2622113;54;20034;-71
2021/10/06 02:36:39;;;;;;;4.57;1.50;;;;;;;11.31;73.82;98748.19;2619127;54;20033;-70
2021/10/06 02:39:09;;;;;;;5.38;2.33;;;;;;;11.36;73.71;98749.19;2618469;47;20033;-70
2021/10/06 02:41:38;;;;;;;5.95;2.13;;;;;;;11.38;74.00;98755.09;2618904;54;20030;-70
2021/10/06 02:44:08;;;;;;;7.70;2.15;;;;;;;11.38;73.62;98760.38;2619351;54;20042;-70
2021/10/06 02:46:38;;;;;;;4.65;2.05;;;;;;;11.43;73.88;98757.16;2618874;46;20038;-69
2021/10/06 02:49:08;;;;;;;7.32;2.00;;;;;;;11.43;73.82;98748.38;2622458;54;20045;-69
2021/10/06 02:51:40;;;;;;;7.47;2.13;;;;;;;11.43;74.03;98756.31;2623150;54;20034;-69
2021/10/06 02:54:10;;;;;;;4.35;2.20;;;;;;;11.36;74.02;98756.31;2623543;54;20037;-70
2021/10/06 02:56:40;;;;;;;4.97;1.95;;;;;;;11.33;73.80;98746.13;2623576;54;20026;-69
2021/10/06 02:59:10;;;;;;;4.88;1.80;;;;;;;11.28;74.43;98754.66;2624261;54;20030;-70
2021/10/06 03:01:39;;;;;;;5.30;1.75;;;;;;;11.33;74.14;98757.53;2627321;54;20023;-71
2021/10/06 03:04:09;;;;;;;7.18;2.25;;;;;;;11.39;74.10;98748.00;2624366;54;20026;-70
2021/10/06 03:06:42;;;;;;;6.22;1.98;;;;;;;11.43;74.32;98754.53;2625833;54;20098;-70
2021/10/06 03:09:12;;;;;;;7.30;2.25;;;;;;;11.43;73.94;98740.44;2623435;54;20031;-69
2021/10/06 03:11:42;;;;;;;5.28;2.35;;;;;;;11.40;73.85;98749.63;2624031;54;20073;-69
2021/10/06 03:14:12;;;;;;;6.20;1.88;;;;;;;11.34;74.24;98747.75;2623505;54;20048;-69
2021/10/06 03:16:42;;;;;;;8.60;2.17;;;;;;;11.33;74.58;98752.22;2623657;54;20027;-69
2021/10/06 03:19:12;;;;;;;8.65;2.20;;;;;;;11.39;73.92;98753.28;2624188;54;20026;-68
2021/10/06 03:21:44;;;;;;;8.38;2.25;;;;;;;11.43;74.16;98757.16;2624468;54;20055;-69
2021/10/06 03:24:14;;;;;;;9.05;1.90;;;;;;;11.42;73.90;98758.16;2624025;54;20074;-69
2021/10/06 03:26:44;;;;;;;6.15;2.20;;;;;;;11.43;74.24;98762.47;2626152;54;20026;-68
2021/10/06 03:29:14;;;;;;;8.80;2.22;;;;;;;11.37;73.97;98769.34;2626445;54;20035;-68
2021/10/06 03:31:43;;;;;;;7.75;2.35;;;;;;;11.34;73.95;98764.44;2626511;54;20034;-70
2021/10/06 03:34:13;;;;;;;6.57;2.72;;;;;;;11.34;74.44;98775.03;2625807;47;20038;-68
2021/10/06 03:36:45;;;;;;;11.05;2.40;;;;;;;11.36;74.39;98778.31;2627713;54;20037;-70
2021/10/06 03:39:15;;;;;;;8.73;2.60;;;;;;;11.36;74.59;98786.25;2626603;54;20042;-70
2021/10/06 03:41:45;;;;;;;7.25;2.25;;;;;;;11.36;74.39;98785.44;2625259;54;20030;-70
2021/10/06 03:44:15;;;;;;;5.40;2.42;;;;;;;11.32;74.36;98786.84;2625226;54;20053;-70
2021/10/06 03:46:44;;;;;;;6.47;2.50;;;;;;;11.31;74.39;98796.63;2625639;54;20030;-70
2021/10/06 03:49:14;;;;;;;6.88;2.47;;;;;;;11.34;74.50;98801.50;2625118;54;20133;-71
2021/10/06 03:51:46;;;;;;;8.02;2.72;;;;;;;11.34;74.43;98798.84;2624392;54;20042;-69
2021/10/06 03:54:16;;;;;;;4.43;2.65;;;;;;;11.33;74.76;98807.81;2623651;54;20030;-69
2021/10/06 03:56:46;;;;;;;6.82;2.72;;;;;;;11.34;74.74;98808.63;2624666;47;20133;-68
2021/10/06 03:59:16;;;;;;;7.78;2.40;;;;;;;11.39;74.95;98808.88;2624130;47;20041;-69
2021/10/06 04:01:46;;;;;;;6.68;2.42;;;;;;;11.37;74.89;98814.34;2624238;54;20033;-69
2021/10/06 04:04:16;;;;;;;6.28;2.72;;;;;;;11.41;74.84;98812.94;2624839;54;20026;-69
2021/10/06 04:06:48;;;;;;;4.22;2.20;;;;;;;11.39;74.33;98820.28;2621876;54;20030;-70
2021/10/06 04:09:18;;;;;;;8.85;2.38;;;;;;;11.35;74.96;98821.69;2623359;47;20053;-70
2021/10/06 04:11:47;;;;;;;7.78;2.28;;;;;;;11.38;74.85;98823.91;2623201;54;20034;-72
2021/10/06 04:14:17;;;;;;;7.05;2.50;;;;;;;11.38;74.85;98829.19;2623132;54;20134;-69
2021/10/06 04:16:47;;;;;;;13.13;2.80;;;;;;;11.43;74.83;98833.94;2623413;54;20060;-69
2021/10/06 04:19:16;;;;;;;7.63;2.25;;;;;;;11.46;74.86;98828.22;2623065;47;20038;-68
2021/10/06 04:21:49;;;;;;;3.40;2.00;;;;;;;11.46;74.51;98830.06;2622206;47;20030;-69
2021/10/06 04:24:18;;;;;;;5.47;1.90;;;;;;;11.52;74.23;98829.28;2621363;51;20034;-71
2021/10/06 04:26:48;;;;;;;6.78;2.20;;;;;;;11.51;74.64;98827.63;2621984;54;20031;-68
2021/10/06 04:29:18;;;;;;;8.77;3.28;;;;;;;11.48;74.32;98820.09;2621699;54;20026;-69
2021/10/06 04:31:48;;;;;;;7.10;2.17;;;;;;;11.46;73.99;98827.41;2622280;52;20034;-69
2021/10/06 04:34:17;;;;;;;7.60;1.70;;;;;;;11.38;74.34;98821.25;2622550;54;20035;-68
2021/10/06 04:36:52;;;;;;;5.97;1.88;;;;;;;11.39;74.43;98820.28;2621172;54;20047;-69
2021/10/06 04:39:22;;;;;;;6.05;2.22;;;;;;;11.38;74.33;98825.75;2620983;54;20027;-71
2021/10/06 04:41:52;;;;;;;5.72;1.90;;;;;;;11.36;74.92;98828.59;2620303;47;20033;-71
2021/10/06 04:44:22;;;;;;;6.90;2.10;;;;;;;11.33;74.88;98830.81;2620916;54;20037;-70
2021/10/06 04:46:52;;;;;;;3.40;1.85;;;;;;;11.35;75.22;98829.63;2619779;47;20042;-70
2021/10/06 04:49:23;;;;;;;6.15;2.50;;;;;;;11.36;74.95;98831.25;2619829;54;20038;-69
2021/10/06 04:51:55;;;;;;;7.43;2.50;;;;;;;11.44;74.62;98832.09;2620882;54;20031;-70
2021/10/06 04:54:25;;;;;;;6.78;2.22;;;;;;;11.44;74.54;98826.81;2620926;47;20022;-68
2021/10/06 04:56:55;;;;;;;6.55;2.22;;;;;;;11.40;74.52;98836.97;2621501;54;20058;-69
2021/10/06 04:59:25;;;;;;;10.27;2.63;;;;;;;11.34;74.12;98840.38;2622693;54;20038;-68
2021/10/06 05:01:55;;;;;;;6.80;2.10;;;;;;;11.35;74.50;98842.84;2623534;54;20043;-69
2021/10/06 05:04:25;;;;;;;6.50;2.00;;;;;;;11.35;74.08;98832.25;2623574;54;20021;-69
2021/10/06 05:06:58;;;;;;;6.15;2.38;;;;;;;11.33;73.47;98838.75;2625274;47;20050;-69
2021/10/06 05:09:27;;;;;;;11.50;3.33;;;;;;;11.29;73.73;98833.03;2625549;54;20026;-69
2021/10/06 05:11:57;;;;;;;7.65;2.67;;;;;;;11.28;73.46;98836.72;2624813;47;20053;-69
2021/10/06 05:14:27;;;;;;;6.80;2.33;;;;;;;11.32;73.30;98831.84;2625679;54;20035;-68
2021/10/06 05:16:58;;;;;;;15.95;1.88;;;;;;;11.36;73.11;98843.66;2625112;54;20038;-68
2021/10/06 05:19:27;;;;;;;8.73;3.10;;;;;;;11.32;72.84;98845.06;2624990;54;20033;-69
2021/10/06 05:22:00;;;;;;;7.93;2.33;;;;;;;11.36;73.10;98849.78;2626298;54;20037;-69
2021/10/06 05:24:29;;;;;;;8.05;2.58;;;;;;;11.35;73.21;98858.72;2625251;47;20037;-69
2021/10/06 05:26:59;;;;;;;10.05;2.33;;;;;;;11.35;72.71;98857.91;2625327;46;20545;-68
2021/10/06 05:29:29;;;;;;;7.70;2.60;;;;;;;11.33;73.32;98858.09;2625824;54;20034;-68
2021/10/06 05:32:03;;;;;;;8.25;2.45;;;;;;;11.34;73.07;98864.19;2624831;47;20050;-70
2021/10/06 05:34:33;;;;;;;8.57;3.25;;;;;;;11.29;73.19;98862.16;2623948;54;20043;-69
2021/10/06 05:37:05;;;;;;;8.13;2.10;;;;;;;11.28;73.41;98870.28;2624064;54;20035;-68
2021/10/06 05:39:35;;;;;;;13.63;2.80;;;;;;;11.25;73.40;98871.50;2624560;54;20034;-69
2021/10/06 05:42:05;;;;;;;8.63;2.10;;;;;;;11.23;73.46;98878.81;2624151;47;20553;-72
2021/10/06 05:44:35;;;;;;;7.20;2.30;;;;;;;11.18;73.34;98883.84;2623942;54;20042;-71
2021/10/06 05:47:05;;;;;;;8.85;2.45;;;;;;;11.15;73.08;98889.56;2623418;54;20034;-69
2021/10/06 05:49:35;;;;;;;9.23;2.72;;;;;;;11.17;73.44;98895.47;2621732;47;20601;-71
2021/10/06 05:52:07;;;;;;;6.90;2.45;;;;;;;11.20;73.35;98884.50;2619521;54;20037;-68
2021/10/06 05:54:37;;;;;;;6.47;2.17;;;;;;;11.25;73.15;98889.19;2619365;54;20038;-71
2021/10/06 05:57:07;;;;;;;12.80;2.60;;;;;;;11.16;72.99;98876.13;2619390;39;20433;-69
2021/10/06 05:59:37;;;;;;;11.52;2.70;;;;;;;11.13;73.29;98881.78;2619739;54;20027;-68
2021/10/06 06:02:06;;;;;;;11.45;2.83;;;;;;;11.11;73.21;98878.53;2619558;47;20026;-68
2021/10/06 06:04:36;;;;;;;10.38;2.53;;;;;;;11.16;73.42;98884.06;2619344;54;20034;-68
2021/10/06 06:07:10;;;;;;;7.65;2.58;;;;;;;11.14;73.39;98894.03;2619690;54;20037;-69
2021/10/06 06:09:39;;;;;;;7.38;2.67;;;;;;;11.09;73.36;98892.97;2618770;47;20031;-69
2021/10/06 06:12:09;;;;;;;7.80;2.35;;;;;;;11.05;73.06;98902.28;2619113;54;20530;-69
2021/10/06 06:14:40;;;;;;;6.95;1.92;;;;;;;11.05;73.24;98894.38;2619131;54;20034;-69
2021/10/06 06:17:10;;;;;;;7.35;2.08;;;;;;;11.08;72.95;98892.16;2618863;54;20026;-69
2021/10/06 06:19:40;;;;;;;8.07;2.30;;;;;;;11.14;73.42;98901.97;2618871;39;20446;-70
2021/10/06 06:22:13;;;;;;;10.52;2.45;;;;;;;11.12;73.33;98903.97;2618760;54;20562;-70
2021/10/06 06:24:42;;;;;;;12.05;2.40;;;;;;;11.21;72.82;98915.22;2618961;39;20438;-68
2021/10/06 06:27:12;;;;;;;8.48;1.77;;;;;;;11.22;72.84;98913.41;2619088;54;20074;-69
2021/10/06 06:29:42;;;;;;;4.93;1.70;;;;;;;11.23;72.60;98912.41;2619370;39;20497;-68
2021/10/06 06:32:11;;;;;;;12.93;4.05;;;;;;;11.26;72.96;98918.09;2618805;54;20046;-68
2021/10/06 06:34:41;;;;;;;6.20;1.95;;;;;;;11.24;73.02;98933.38;2618079;47;20022;-68
2021/10/06 06:37:13;;;;;;;4.03;1.85;;;;;;;11.32;73.07;98935.06;2618906;54;20038;-68
2021/10/06 06:39:43;;;;;;;3.88;1.77;;;;;;;11.29;72.75;98941.53;2618808;54;20034;-68
2021/10/06 06:42:13;;;;;;;4.57;1.92;;;;;;;11.30;72.59;98937.88;2618232;47;20030;-69
2021/10/06 06:44:43;;;;;;;7.22;1.80;;;;;;;11.35;72.98;98942.63;2618719;54;20030;-69
2021/10/06 06:47:12;;;;;;;8.18;1.70;;;;;;;11.39;72.40;98951.81;2618921;54;20043;-68
2021/10/06 06:49:42;;;;;;;5.00;1.98;;;;;;;11.40;72.23;98951.59;2618715;54;20045;-69
2021/10/06 06:52:15;;;;;;;6.40;2.03;;;;;;;11.44;72.03;98954.69;2618139;54;20062;-64
2021/10/06 06:54:44;;;;;;;6.25;2.28;;;;;;;11.46;72.14;98960.59;2617150;54;20049;-64
2021/10/06 06:57:14;;;;;;;4.18;1.63;;;;;;;11.38;71.92;98966.03;2618544;54;20018;-65
2021/10/06 06:59:45;;;;;;;4.57;1.50;;;;;;;11.36;72.21;98974.16;2618395;54;20063;-65
2021/10/06 07:02:14;;;;;;;7.78;1.83;;;;;;;11.39;72.08;98973.78;2618071;49;20065;-65
2021/10/06 07:04:44;;;;;;;6.03;1.95;;;;;;;11.50;71.63;98974.25;2618007;54;20023;-65
2021/10/06 07:07:17;;;;;;;4.88;1.95;;;;;;;11.63;71.80;98975.16;2618622;54;20038;-65
2021/10/06 07:09:50;;;;;;;7.13;1.75;;;;;;;11.66;71.47;98973.94;2618696;54;20026;-65
2021/10/06 07:12:22;;;;;;;5.30;1.77;;;;;;;11.71;71.38;98983.94;2618782;54;20042;-65
2021/10/06 07:14:53;;;;;;;6.72;2.40;;;;;;;11.66;71.40;98977.41;2618321;54;20041;-65
2021/10/06 07:17:23;;;;;;;4.55;1.55;;;;;;;11.62;70.79;98980.63;2618733;54;20034;-65
2021/10/06 07:19:53;;;;;;;4.07;1.42;;;;;;;11.55;71.05;98982.41;2618302;50;20049;-65
2021/10/06 07:22:27;;;;;;;6.30;2.17;;;;;;;11.59;70.74;98981.88;2618125;54;20061;-65
2021/10/06 07:24:57;;;;;;;13.02;2.00;;;;;;;11.62;71.20;98988.56;2618323;54;20029;-65
2021/10/06 07:27:27;;;;;;;8.63;2.15;;;;;;;11.60;71.44;98998.56;2617699;54;20026;-65
2021/10/06 07:29:57;;;;;;;7.00;1.80;;;;;;;11.66;71.97;99003.06;2618117;54;20035;-65
2021/10/06 07:32:27;;;;;;;2.90;1.60;;;;;;;11.65;71.70;99010.19;2618517;54;20026;-64
2021/10/06 07:34:56;;;;;;;8.05;2.30;;;;;;;11.68;72.18;99010.84;2618625;39;20090;-64
2021/10/06 07:37:29;;;;;;;6.05;2.17;;;;;;;11.73;71.72;99014.53;2618751;54;20058;-64
2021/10/06 07:39:58;;;;;;;6.25;1.90;;;;;;;11.74;71.75;99012.69;2618727;54;20094;-64
2021/10/06 07:42:28;;;;;;;5.00;1.80;;;;;;;11.82;72.41;99023.13;2619440;39;20459;-65
2021/10/06 07:45:00;;;;;;;5.03;2.40;;;;;;;11.95;72.03;99025.88;2619528;39;20430;-65
2021/10/06 07:47:30;;;;;;;5.05;2.20;;;;;;;11.97;71.86;99023.06;2619037;54;20055;-66
2021/10/06 07:50:00;;;;;;;4.82;1.88;;;;;;;12.02;71.62;99020.63;2619383;39;20398;-65
2021/10/06 07:52:34;;;;;;;9.98;2.58;;;;;;;12.13;71.79;99023.53;2618163;47;20055;-65
2021/10/06 07:55:05;;;;;;;4.63;2.10;;;;;;;12.21;71.50;99019.09;2618183;47;20022;-65
2021/10/06 07:57:35;;;;;;;5.85;2.70;;;;;;;12.32;71.03;99026.44;2618276;47;20593;-65
2021/10/06 08:00:11;;;;;;;7.70;2.85;;;;;;;12.29;70.46;99032.97;2618774;54;20023;-65
2021/10/06 08:02:40;;;;;;;7.63;3.33;;;;;;;12.34;70.43;99025.25;2618714;54;20595;-65
2021/10/06 08:05:11;;;;;;;7.40;2.38;;;;;;;12.46;69.74;99032.63;2618034;39;20668;-65
2021/10/06 08:07:44;;;;;;;7.05;2.30;;;;;;;12.36;69.91;99043.59;2617628;54;20026;-66
2021/10/06 08:10:14;;;;;;;6.15;2.10;;;;;;;12.23;69.60;99051.50;2619247;54;20034;-65
2021/10/06 08:12:44;;;;;;;3.63;2.13;;;;;;;12.18;69.67;99057.41;2621273;54;20078;-64
2021/10/06 08:15:15;;;;;;;6.25;2.10;;;;;;;12.12;69.51;99052.88;2621673;54;20033;-65
2021/10/06 08:17:45;;;;;;;4.50;1.95;;;;;;;12.15;69.97;99055.94;2619428;54;20030;-65
2021/10/06 08:20:17;;;;;;;7.32;2.53;;;;;;;12.21;69.62;99056.19;2618600;54;20041;-66
2021/10/06 08:22:51;;;;;;;7.13;2.17;;;;;;;12.27;69.17;99058.03;2618591;47;20022;-65
2021/10/06 08:25:21;;;;;;;5.50;2.00;;;;;;;12.30;69.11;99062.97;2619722;39;20479;-65
2021/10/06 08:27:52;;;;;;;5.15;2.38;;;;;;;12.39;68.72;99062.56;2622457;39;20437;-65
2021/10/06 08:30:22;;;;;;;9.40;2.90;;;;;;;12.46;68.39;99062.63;2623242;54;20035;-65
2021/10/06 08:32:52;;;;;;;6.07;2.05;;;;;;;12.54;68.01;99064.28;2623481;54;20030;-65
2021/10/06 08:35:23;;;;;;;14.43;3.35;;;;;;;12.55;67.19;99058.75;2622987;54;20029;-65
2021/10/06 08:37:55;;;;;;;5.38;2.47;;;;;;;12.62;67.17;99062.25;2622769;54;20027;-65
2021/10/06 08:40:25;;;;;;;9.85;2.38;;;;;;;12.61;67.39;99067.75;2623199;54;20073;-65
2021/10/06 08:42:55;;;;;;;6.13;2.17;;;;;;;12.64;67.10;99070.00;2622572;54;20030;-65
2021/10/06 08:45:25;;;;;;;6.80;2.05;;;;;;;12.58;67.49;99068.97;2622909;54;20033;-65
2021/10/06 08:47:56;;;;;;;5.97;2.20;;;;;;;12.68;67.42;99062.47;2623435;39;20425;-65
2021/10/06 08:50:26;;;;;;;6.60;2.35;;;;;;;12.80;67.17;99061.69;2622848;54;20025;-65
2021/10/06 08:52:58;;;;;;;7.97;2.65;;;;;;;12.82;67.12;99048.25;2622930;54;20041;-64
2021/10/06 08:55:30;;;;;;;6.27;2.70;;;;;;;12.93;66.48;99058.25;2622003;54;20026;-65
2021/10/06 08:58:01;;;;;;;7.82;2.60;;;;;;;12.99;67.02;99048.69;2618798;54;20037;-65
2021/10/06 09:00:32;;;;;;;8.05;2.50;;;;;;;13.13;66.01;99055.63;2618749;54;20150;-65
2021/10/06 09:03:09;;;;;;;5.22;2.70;;;;;;;13.28;65.59;99058.94;2619053;54;20083;-64
2021/10/06 09:05:39;;;;;;;7.38;2.22;;;;;;;13.35;64.98;99054.47;2619032;54;20061;-64
2021/10/06 09:08:12;;;;;;;12.48;2.80;;;;;;;13.35;65.04;99058.94;2619116;54;20061;-65
2021/10/06 09:10:48;;;;;;;8.32;2.42;;;;;;;13.30;65.29;99053.41;2619126;54;20037;-64
2021/10/06 09:13:17;;;;;;;5.78;2.72;;;;;;;13.31;64.85;99061.19;2619109;54;20045;-65
2021/10/06 09:15:49;;;;;;;9.45;3.08;;;;;;;13.21;64.64;99063.38;2618780;54;20046;-64
2021/10/06 09:18:21;;;;;;;9.25;2.90;;;;;;;13.17;64.91;99067.47;2619101;54;20035;-64
2021/10/06 09:20:51;;;;;;;7.30;3.30;;;;;;;13.16;64.64;99068.50;2619000;54;20552;-65
2021/10/06 09:23:25;;;;;;;18.42;9.57;;;;;;;13.32;64.58;99057.50;2619098;54;20038;-64
2021/10/06 09:25:57;;;;;;;10.43;4.95;;;;;;;13.59;64.36;99062.81;2618710;54;20026;-64
2021/10/06 09:28:29;;;;;;;6.97;3.20;;;;;;;13.79;63.67;99076.88;2619156;54;20034;-64
2021/10/06 09:31:01;;;;;;;6.90;3.08;;;;;;;13.78;62.95;99071.78;2618725;54;20026;-64
2021/10/06 09:33:45;;;;;;;10.23;3.75;;;;;;;13.66;62.99;99079.56;2618581;54;20030;-65
2021/10/06 09:36:17;;;;;;;7.22;2.80;;;;;;;13.71;63.16;99081.59;2618899;54;20026;-65
2021/10/06 09:38:52;;;;;;;10.00;3.42;;;;;;;13.86;62.48;99076.88;2618992;54;20030;-65
2021/10/06 09:41:47;;;;;;;8.23;2.70;;;;;;;14.06;61.70;99075.00;2619215;54;20550;-65
2021/10/06 09:44:19;;;;;;;6.43;3.08;;;;;;;14.33;61.66;99083.72;2618622;54;20031;-65
2021/10/06 09:46:55;;;;;;;8.35;2.63;;;;;;;14.50;60.46;99070.00;2619218;54;20045;-65
2021/10/06 09:49:29;;;;;;;10.35;3.15;;;;;;;14.60;60.23;99059.69;2619048;54;20030;-65
2021/10/06 09:52:16;;;;;;;7.07;2.80;;;;;;;14.62;59.74;99070.97;2618867;54;20030;-65
2021/10/06 09:54:54;;;;;;;5.80;2.85;;;;;;;14.43;59.66;99079.81;2618717;54;20027;-64
2021/10/06 09:57:31;;;;;;;8.80;3.42;;;;;;;14.29;60.40;99093.16;2618874;54;20033;-64
2021/10/06 10:00:04;;;;;;;13.32;3.83;;;;;;;14.26;60.58;99088.25;2619074;54;20042;-65
2021/10/06 10:02:40;;;;;;;9.40;3.25;;;;;;;14.15;60.79;99085.41;2618776;54;20046;-65
2021/10/06 10:05:12;;;;;;;9.75;2.80;;;;;;;14.06;60.67;99090.13;2618574;54;20045;-65
2021/10/06 10:07:42;;;;;;;6.22;3.33;;;;;;;14.02;60.97;99089.72;2618130;47;20026;-65
2021/10/06 10:10:15;;;;;;;6.30;2.90;;;;;;;13.97;61.42;99089.56;2618953;54;20038;-65
2021/10/06 10:12:45;;;;;;;5.80;2.65;;;;;;;13.97;60.93;99083.41;2618909;54;20035;-65
2021/10/06 10:15:16;;;;;;;6.68;3.10;;;;;;;14.09;60.90;99082.56;2618918;54;20035;-65
2021/10/06 10:17:46;;;;;;;8.55;3.50;;;;;;;14.07;60.88;99089.09;2620793;47;20022;-65
2021/10/06 10:20:18;;;;;;;11.40;3.50;;;;;;;13.95;60.60;99099.56;2619767;54;20029;-65
2021/10/06 10:22:50;;;;;;;7.53;3.30;;;;;;;13.79;61.38;99111.44;2618517;47;20055;-65
2021/10/06 10:25:27;;;;;;;9.65;3.50;;;;;;;13.74;61.54;99105.91;2618910;54;20035;-65
2021/10/06 10:28:10;;;;;;;8.98;3.40;;;;;;;13.69;61.99;99113.69;2620482;54;20038;-64
2021/10/06 10:30:42;;;;;;;6.82;2.80;;;;;;;13.71;61.64;99111.63;2621525;54;20074;-65
2021/10/06 10:33:12;;;;;;;6.22;2.90;;;;;;;13.70;61.99;99110.00;2621309;54;20562;-66
2021/10/06 10:35:44;;;;;;;10.00;2.88;;;;;;;13.71;61.61;99110.81;2621086;54;20038;-65
2021/10/06 10:38:19;;;;;;;7.78;2.88;;;;;;;13.70;61.94;99110.00;2620059;54;20042;-65
2021/10/06 10:40:54;;;;;;;6.72;3.00;;;;;;;13.58;62.21;99109.81;2618150;47;20069;-65
2021/10/06 10:43:27;;;;;;;9.93;3.10;;;;;;;13.66;62.10;99115.94;2618133;47;20030;-65
2021/10/06 10:46:10;;;;;;;9.85;2.60;;;;;;;13.70;62.12;99114.50;2618711;54;20572;-65
2021/10/06 10:49:01;;;;;;;7.38;2.53;;;;;;;13.71;62.36;99116.13;2618326;39;20404;-65
2021/10/06 10:51:46;;;;;;;8.07;2.55;;;;;;;13.85;62.20;99109.81;2617986;47;20047;-66
2021/10/06 10:54:35;;;;;;;11.02;3.00;;;;;;;13.88;63.20;99109.41;2619349;54;20031;-65
2021/10/06 10:57:19;;;;;;;9.40;3.30;;;;;;;13.79;64.03;99110.63;2620988;54;20058;-66
2021/10/06 10:59:49;;;;;;;;;;;;;;;13.68;64.68;99109.41;2620736;54;20026;-66
2021/10/06 11:02:25;;;;;;;4.80;2.50;;;;;;;13.73;64.93;99103.47;2619575;54;19952;-66
2021/10/06 11:05:00;;;;;;;10.00;4.97;;;;;;;13.81;65.01;99106.75;2618596;54;20055;-66
2021/10/06 11:07:30;;;;;;;13.75;5.00;;;;;;;13.84;64.52;99100.22;2620911;54;20582;-66
2021/10/06 11:10:01;;;;;;;8.52;2.70;;;;;;;13.75;64.65;99099.56;2623305;54;20041;-66
2021/10/06 11:12:46;;;;;;;10.63;3.35;;;;;;;13.67;64.67;99096.31;2619393;47;20050;-66
2021/10/06 11:15:34;;;;;;;6.43;2.50;;;;;;;13.51;64.70;99086.91;2618917;54;20943;-65
2021/10/06 11:18:31;;;;;;;10.23;3.05;;;;;;;13.42;65.33;99085.50;2618522;54;20046;-65
2021/10/06 11:21:06;;;;;;;8.82;2.70;;;;;;;13.45;65.57;99091.22;2618700;54;20034;-64
